METAR Data
IDs: Format: Raw Decoded Include TAF

Data at: 0450 UTC 26 Sep 2018

K1K1 260435Z AUTO 36004KT 10SM CLR 13/09 A3020 RMK AO2 T01330093
K1K1 260415Z AUTO 36004KT 10SM CLR 14/10 A3020 RMK AO2 T01350095
K1K1 260355Z AUTO 36003KT 10SM CLR 14/10 A3019 RMK AO2 T01380096
K1K1 260335Z AUTO 35004KT 10SM CLR 14/10 A3018 RMK AO2 T01410098
K1K1 260315Z AUTO 35007KT 10SM CLR 14/10 A3017 RMK AO2 T01430102
K1K1 260255Z AUTO 34005KT 10SM CLR 15/11 A3016 RMK AO2 T01460105
K1K1 260235Z AUTO 35004KT 10SM CLR 15/11 A3015 RMK AO2 T01470105
K1K1 260215Z AUTO 36003KT 10SM CLR 15/11 A3015 RMK AO2 T01510105
K1K1 260155Z AUTO 34006KT 10SM CLR 16/11 A3014 RMK AO2 T01550105
K1K1 260135Z AUTO 35006KT 10SM CLR 16/11 A3012 RMK AO2 T01580106
K1K1 260115Z AUTO 36007KT 310V010 10SM CLR 16/11 A3011 RMK AO2 T01620108
K1K1 260055Z AUTO 36010G14KT 320V030 10SM CLR 17/11 A3010 RMK AO2 T01670108
K1K1 260035Z AUTO 36009G15KT 10SM CLR 17/11 A3009 RMK AO2 T01700111
K1K1 260015Z AUTO 35009KT 320V030 10SM CLR 17/12 A3007 RMK AO2 T01710117
K1K1 252355Z AUTO 36008KT 340V040 10SM CLR 17/12 A3005 RMK AO2 T01720116 10254 20172
K1K1 252335Z AUTO 01010G15KT 320V020 10SM CLR 18/12 A3005 RMK AO2 T01770115
K1K1 252315Z AUTO 36015G22KT 330V030 10SM CLR 19/12 A3005 RMK AO2 T01870118
K1K1 252255Z AUTO 36011G22KT 10SM CLR 19/12 A3004 RMK AO2 T01910116
K1K1 252235Z AUTO 36014G23KT 10SM CLR 19/12 A3003 RMK AO2 T01920119
K1K1 252215Z AUTO 36014G23KT 10SM CLR 19/13 A3002 RMK AO2 T01910126
K1K1 252155Z AUTO 36011G23KT 10SM BKN060 20/12 A3002 RMK AO2 T01960124
K1K1 252135Z AUTO 35018G24KT 10SM SCT041 SCT049 OVC060 19/13 A3001 RMK AO2 T01900131
K1K1 252115Z AUTO 36010G18KT 10SM BKN044 OVC050 19/14 A3000 RMK AO2 T01900136
K1K1 252055Z AUTO 36014G24KT 10SM SCT044 BKN050 20/14 A3000 RMK AO2 T01950141
K1K1 252035Z AUTO 36014G24KT 10SM OVC050 20/14 A2999 RMK AO2 T01990144
K1K1 252015Z AUTO 35016G19KT 10SM OVC050 20/15 A2998 RMK AO2 T02040151
K1K1 251955Z AUTO 35018G25KT 10SM BKN048 21/16 A2997 RMK AO2 T02100156
K1K1 251935Z AUTO 36013G27KT 10SM SCT018 BKN048 21/16 A2997 RMK AO2 T02070159
K1K1 251915Z AUTO 35015G25KT 10SM SCT026 SCT034 BKN044 22/17 A2996 RMK AO2 T02230169
K1K1 251855Z AUTO 34014G25KT 10SM SCT026 BKN034 OVC044 22/17 A2995 RMK AO2 T02210170
K1K1 251835Z AUTO 31009G14KT 290V360 10SM SCT040 BKN046 25/17 A2995 RMK AO2 T02490167
K1K1 251815Z AUTO 33010G17KT 10SM SCT031 BKN039 25/17 A2994 RMK AO2 T02500173
K1K1 251755Z AUTO 30011G15KT 10SM SCT024 BKN028 OVC041 24/17 A2994 RMK AO2 T02430172 10243 20187
K1K1 251735Z AUTO 29011G15KT 10SM SCT018 BKN024 OVC034 24/18 A2994 RMK AO2 T02380184
K1K1 251715Z AUTO 29009G16KT 10SM SCT020 BKN026 BKN034 24/19 A2994 RMK AO2 T02400190
K1K1 251655Z AUTO 28009G15KT 10SM BKN020 BKN028 OVC034 24/19 A2994 RMK AO2 T02390192
K1K1 251635Z AUTO 27008G17KT 10SM BKN018 BKN025 OVC034 23/19 A2993 RMK AO2 T02310190
K1K1 251615Z AUTO 27007KT 10SM OVC018 23/19 A2994 RMK AO2 T02330194
K1K1 251555Z AUTO 23007KT 10SM OVC016 23/19 A2994 RMK AO2 T02280193
K1K1 251535Z AUTO 23008KT 10SM OVC014 23/19 A2992 RMK AO2 T02290194
K1K1 251515Z AUTO 10SM OVC012 23/20 A2991 RMK AO2 T02250195
K1K1 251455Z AUTO 19011G21KT 10SM OVC010 22/19 A2991 RMK AO2 T02160193
K1K1 251435Z AUTO 19012G21KT 10SM BKN008 BKN013 21/19 A2989 RMK AO2 T02100190
K1K1 251415Z AUTO 19014G22KT 10SM OVC006 20/19 A2989 RMK AO2 T02010190
K1K1 251355Z AUTO 18014G21KT 10SM OVC006 20/19 A2989 RMK AO2 T01950186
K1K1 251335Z AUTO 19013G21KT 10SM OVC006 19/19 A2989 RMK AO2 T01930186
K1K1 251315Z AUTO 18013G23KT 10SM OVC006 19/19 A2988 RMK AO2 T01900185
K1K1 251255Z AUTO 18010G20KT 10SM OVC006 19/19 A2989 RMK AO2 T01900186
K1K1 251235Z AUTO 18009G19KT 7SM OVC006 19/19 A2989 RMK AO2 T01900187
K1K1 251215Z AUTO 18009G15KT 10SM OVC006 19/19 A2989 RMK AO2 T01880187
K1K1 251155Z AUTO 17010G18KT 10SM OVC004 19/19 A2989 RMK AO2 T01870186 10190 20180
K1K1 251135Z AUTO 18009G21KT 10SM OVC004 19/19 A2989 RMK AO2 T01870187
K1K1 251115Z AUTO 18008G14KT 10SM OVC004 19/19 A2989 RMK AO2 T01850185
K1K1 251055Z AUTO 18007G17KT 7SM OVC004 19/19 A2988 RMK AO2 T01850185
K1K1 251035Z AUTO 17006KT 4SM BR OVC002 18/18 A2988 RMK AO2 T01830183
K1K1 251015Z AUTO 17007KT 1SM BR OVC002 18/18 A2988 RMK AO2 T01820182
K1K1 250955Z AUTO 17004KT 1SM BR OVC002 18/18 A2988 RMK AO2 T01810181
K1K1 250935Z AUTO 17004KT 1SM BR OVC002 18/18 A2988 RMK AO2 T01820182
K1K1 250915Z AUTO 18004KT 1 1/2SM BR OVC002 18/18 A2988 RMK AO2 T01820182
K1K1 250855Z AUTO 00000KT 1 3/4SM BR OVC002 18/18 A2988 RMK AO2 T01820182
K1K1 250835Z AUTO 18007KT 1 1/4SM BR OVC002 18/18 A2988 RMK AO2 T01830182
K1K1 250815Z AUTO 18004KT 7SM BKN002 18/18 A2988 RMK AO2 T01810180
K1K1 250755Z AUTO 18004KT 10SM CLR 18/18 A2988 RMK AO2 T01810180
K1K1 250735Z AUTO 18004KT 10SM CLR 18/18 A2988 RMK AO2 T01810180
K1K1 250715Z AUTO 18003KT 7SM CLR 18/18 A2988 RMK AO2 T01800180
K1K1 250655Z AUTO 17005KT 10SM CLR 18/18 A2988 RMK AO2 T01820180
K1K1 250635Z AUTO 17004KT 10SM CLR 19/18 A2988 RMK AO2 T01850182
K1K1 250615Z AUTO 18007KT 10SM CLR 19/19 A2988 RMK AO2 T01880185
K1K1 250555Z AUTO 17006KT 10SM CLR 19/19 A2987 RMK AO2 T01890186 10240 20185 402670137
K1K1 250535Z AUTO 16006KT 10SM CLR 19/18 A2987 RMK AO2 T01860183
K1K1 250515Z AUTO 16007KT 10SM CLR 19/18 A2987 RMK AO2 T01860182
K1K1 250455Z AUTO 16006KT 10SM CLR 19/18 A2988 RMK AO2 T01860182
K1K1 250435Z AUTO 16005KT 10SM CLR 19/18 A2988 RMK AO2 T01850181
K1K1 250415Z AUTO 16006KT 10SM CLR 19/18 A2988 RMK AO2 T01860181
K1K1 250355Z AUTO 16006KT 10SM CLR 19/18 A2988 RMK AO2 T01870181
K1K1 250335Z AUTO 17006KT 10SM CLR 19/18 A2988 RMK AO2 T01900182
K1K1 250315Z AUTO 17004KT 10SM CLR 20/18 A2988 RMK AO2 T01950184
K1K1 250255Z AUTO 18005KT 10SM CLR 20/19 A2987 RMK AO2 T01970185
K1K1 250235Z AUTO 17006KT 10SM CLR 20/19 A2987 RMK AO2 T02000185
K1K1 250215Z AUTO 17008KT 10SM CLR 20/19 A2986 RMK AO2 T02030185
K1K1 250155Z AUTO 17008KT 10SM CLR 21/18 A2985 RMK AO2 T02070184
K1K1 250135Z AUTO 18009KT 10SM CLR 21/19 A2985 RMK AO2 T02130185
K1K1 250115Z AUTO 18009KT 10SM CLR 22/19 A2983 RMK AO2 T02150185
K1K1 250055Z AUTO 18010KT 10SM CLR 22/19 A2983 RMK AO2 T02200185
K1K1 250035Z AUTO 18011KT 10SM CLR 22/19 A2983 RMK AO2 T02230185
K1K1 250015Z AUTO 17009KT 10SM CLR 23/18 A2983 RMK AO2 T02300181
K1K1 242355Z AUTO 18009G14KT 10SM CLR 24/18 A2982 RMK AO2 T02400178 10267 20222
K1K1 242335Z AUTO 18009KT 10SM CLR 25/18 A2982 RMK AO2 T02470180
K1K1 242315Z AUTO 17009KT 10SM CLR 25/18 A2982 RMK AO2 T02530176
K1K1 242255Z AUTO 18008KT 10SM CLR 26/18 A2982 RMK AO2 T02550179
K1K1 242235Z AUTO 18010G15KT 10SM SCT042 26/18 A2982 RMK AO2 T02600178
K1K1 242215Z AUTO 19012G17KT 10SM SCT041 SCT048 27/17 A2982 RMK AO2 T02660173
K1K1 242155Z AUTO 19010G19KT 10SM BKN041 26/17 A2982 RMK AO2 T02590170
K1K1 242135Z AUTO 19012G18KT 10SM SCT037 26/17 A2982 RMK AO2 T02640171
K1K1 242115Z AUTO 22009G15KT 10SM BKN035 27/18 A2983 RMK AO2 T02670178
K1K1 242055Z AUTO 18011G18KT 10SM SCT035 26/18 A2983 RMK AO2 T02570178
K1K1 242035Z AUTO 19009G21KT 10SM SCT033 26/18 A2983 RMK AO2 T02570176
K1K1 242015Z AUTO 17012G21KT 10SM SCT029 25/17 A2983 RMK AO2 T02510174
K1K1 241955Z AUTO 18012G22KT 10SM BKN029 25/18 A2984 RMK AO2 T02460175
K1K1 241935Z AUTO 17013G20KT 10SM SCT021 OVC029 24/18 A2985 RMK AO2 T02440178
K1K1 241915Z AUTO 17011G20KT 10SM BKN023 BKN029 24/18 A2986 RMK AO2 T02370181
K1K1 241855Z AUTO 17012G20KT 10SM BKN023 BKN031 24/18 A2988 RMK AO2 T02390183
K1K1 241835Z AUTO 18010KT 10SM BKN021 BKN027 24/18 A2989 RMK AO2 T02350181
K1K1 241815Z AUTO 16009G19KT 10SM BKN019 BKN027 OVC031 23/19 A2990 RMK AO2 T02290186
K1K1 241755Z AUTO 17008KT 10SM BKN017 BKN023 OVC033 22/18 A2991 RMK AO2 T02210181 10222 20160
K1K1 241735Z AUTO 21008KT 10SM SCT017 SCT023 OVC031 22/18 A2992 RMK AO2 T02210180
K1K1 241715Z AUTO 18008KT 10SM BKN017 OVC026 21/18 A2993 RMK AO2 T02120180
K1K1 241655Z AUTO 20011G17KT 10SM SCT017 OVC026 21/18 A2994 RMK AO2 T02100180